首页
METAR-TAF:

METAR-TAF

机场 :

阿尔汉格尔斯克, 俄罗斯

纬度: 64-30N, 经度: 040-44E, 海拔: 13米

当前天气观测

该预报发布于20分钟前的22:00 UTC
风速4节,风向南转南东,在东转东南之间变化
温度 5°C
湿度 56%
气压 998 hPa
能见度10公里或以上
阴天层高于4900英尺

METAR: ULAA 252200Z 15002MPS 120V190 9999 OVC049 05/M03 Q0998 NOSIG RMK QFE748/0997 R08/CLRD70

时间: 01:20 (22:20 UTC)

预报

该预报发布于2小时和20分钟前的20:00 UTC
预报有效从25日的 21点(UTC)到 26日的 21点(UTC)
风速10节,风向
能见度10公里或以上
多云层高于1500英尺
短暂存在
从 25日的 21点(UTC)到 25日的 24点(UTC)
风速8节,风向南转南东,有时为17节阵风
能見度: 4000
多云层高于1100英尺, 积雨云.
小阵雨, 轻雾
从 26日的 0000点(UTC)
风速12节,风向南转南东
能見度: 6000
多云层高于1200英尺, 积雨云.
短暂存在
从 26日的 00点(UTC)到 26日的 15点(UTC)
风速10节,风向南转南东,有时为21节阵风
能見度: 3100
多云层高于700英尺
多云层高于1100英尺, 积雨云.
小阵雨, 轻雾
短暂存在
从 26日的 15点(UTC)到 26日的 21点(UTC)
风速12节,风向南转西南
能見度: 2100
多云层高于500英尺
多云层高于1100英尺, 积雨云.
小阵雨, 轻雾

TAF: ULAA 252000Z 2521/2621 18005MPS 9999 BKN015 TEMPO 2521/2524 16004G09MPS 4000 -SHRA BR BKN011CB FM260000 16006MPS 6000 BKN012CB TEMPO 2600/2615 16005G11MPS 3100 -SHRA BR BKN007 BKN011CB TEMPO 2615/2621 20006MPS 2100 -SHRA BR BKN005 BKN011CB

超过4000个机场的气象观测和天气预报(METAR&TAF报告)。

可查询的气象台以黄色和红色小点在地图上表示。

将鼠标移到小点上方,可查看气象台名称。

然后点击查看天气观测和预报。

如需切换地图:点击带黑十字的绿色按钮放大地图;点击带横线的绿色按钮缩小地图;或者点击绿色箭头查看邻近地区的地图。


METAR-TAF: